sensor_id;sensor_type;location;lat;lon;timestamp;pressure;altitude;pressure_sealevel;temperature;humidity
84785;BME280;75017;41.576;24.704;2024-02-21T00:01:40;91435.75;;;-0.09;77.53
84785;BME280;75017;41.576;24.704;2024-02-21T00:04:05;91429.66;;;-0.08;78.18
84785;BME280;75017;41.576;24.704;2024-02-21T00:06:31;91432.44;;;-0.10;78.35
84785;BME280;75017;41.576;24.704;2024-02-21T00:08:57;91436.28;;;-0.12;78.46
84785;BME280;75017;41.576;24.704;2024-02-21T00:11:22;91437.56;;;-0.30;77.48
84785;BME280;75017;41.576;24.704;2024-02-21T00:13:48;91441.13;;;-0.31;77.97
84785;BME280;75017;41.576;24.704;2024-02-21T00:16:13;91441.38;;;-0.27;77.09
84785;BME280;75017;41.576;24.704;2024-02-21T00:18:41;91443.41;;;-0.29;77.22
84785;BME280;75017;41.576;24.704;2024-02-21T00:21:07;91436.53;;;-0.34;78.20
84785;BME280;75017;41.576;24.704;2024-02-21T00:23:32;91435.53;;;-0.43;77.91
84785;BME280;75017;41.576;24.704;2024-02-21T00:25:58;91446.72;;;-0.44;79.36
84785;BME280;75017;41.576;24.704;2024-02-21T00:28:23;91441.13;;;-0.36;78.69
84785;BME280;75017;41.576;24.704;2024-02-21T00:30:49;91439.34;;;-0.35;77.92
84785;BME280;75017;41.576;24.704;2024-02-21T00:33:16;91444.19;;;-0.49;78.53
84785;BME280;75017;41.576;24.704;2024-02-21T00:35:42;91446.22;;;-0.51;78.68
84785;BME280;75017;41.576;24.704;2024-02-21T00:38:07;91447.75;;;-0.40;77.77
84785;BME280;75017;41.576;24.704;2024-02-21T00:40:34;91440.13;;;-0.35;77.09
84785;BME280;75017;41.576;24.704;2024-02-21T00:43:00;91439.06;;;-0.24;77.57
84785;BME280;75017;41.576;24.704;2024-02-21T00:45:25;91437.06;;;-0.17;79.14
84785;BME280;75017;41.576;24.704;2024-02-21T00:47:53;91429.41;;;-0.17;77.83
84785;BME280;75017;41.576;24.704;2024-02-21T00:50:28;91430.16;;;-0.21;78.37
84785;BME280;75017;41.576;24.704;2024-02-21T00:52:53;91436.78;;;-0.20;78.89
84785;BME280;75017;41.576;24.704;2024-02-21T00:55:19;91432.97;;;-0.18;77.68
84785;BME280;75017;41.576;24.704;2024-02-21T00:57:44;91429.41;;;-0.12;77.54
84785;BME280;75017;41.576;24.704;2024-02-21T01:00:10;91426.06;;;-0.07;78.45
84785;BME280;75017;41.576;24.704;2024-02-21T01:02:36;91422.25;;;-0.10;78.07
84785;BME280;75017;41.576;24.704;2024-02-21T01:05:02;91422.25;;;-0.10;76.82
84785;BME280;75017;41.576;24.704;2024-02-21T01:07:27;91420.97;;;-0.07;76.52
84785;BME280;75017;41.576;24.704;2024-02-21T01:09:53;91424.03;;;-0.05;76.78
84785;BME280;75017;41.576;24.704;2024-02-21T01:12:18;91412.31;;;-0.01;78.07
84785;BME280;75017;41.576;24.704;2024-02-21T01:14:44;91403.41;;;-0.09;77.63
84785;BME280;75017;41.576;24.704;2024-02-21T01:17:11;91410.28;;;-0.04;78.59
84785;BME280;75017;41.576;24.704;2024-02-21T01:19:37;91397.81;;;-0.06;77.96
84785;BME280;75017;41.576;24.704;2024-02-21T01:22:02;91392.16;;;0.08;77.49
84785;BME280;75017;41.576;24.704;2024-02-21T01:24:28;91390.88;;;0.10;76.85
84785;BME280;75017;41.576;24.704;2024-02-21T01:26:53;91382.69;;;0.08;78.04
84785;BME280;75017;41.576;24.704;2024-02-21T01:29:19;91386.31;;;-0.13;78.58
84785;BME280;75017;41.576;24.704;2024-02-21T01:31:44;91388.59;;;-0.02;77.72
84785;BME280;75017;41.576;24.704;2024-02-21T01:34:10;91387.56;;;0.10;76.49
84785;BME280;75017;41.576;24.704;2024-02-21T01:36:35;91397.53;;;-0.09;78.80
84785;BME280;75017;41.576;24.704;2024-02-21T01:39:01;91384.81;;;-0.14;77.15
84785;BME280;75017;41.576;24.704;2024-02-21T01:41:26;91390.69;;;-0.14;77.47
84785;BME280;75017;41.576;24.704;2024-02-21T01:43:54;91396.50;;;-0.13;77.61
84785;BME280;75017;41.576;24.704;2024-02-21T01:46:20;91404.16;;;-0.13;77.50
84785;BME280;75017;41.576;24.704;2024-02-21T01:48:45;91400.34;;;-0.16;77.55
84785;BME280;75017;41.576;24.704;2024-02-21T01:51:11;91390.13;;;-0.11;78.05
84785;BME280;75017;41.576;24.704;2024-02-21T01:53:42;91388.88;;;-0.08;77.78
84785;BME280;75017;41.576;24.704;2024-02-21T01:56:08;91387.84;;;-0.12;77.43
84785;BME280;75017;41.576;24.704;2024-02-21T01:58:36;91387.84;;;-0.12;78.94
84785;BME280;75017;41.576;24.704;2024-02-21T02:01:03;91380.47;;;-0.14;77.72
84785;BME280;75017;41.576;24.704;2024-02-21T02:03:28;91383.53;;;-0.07;77.33
84785;BME280;75017;41.576;24.704;2024-02-21T02:05:55;91387.59;;;-0.11;78.06
84785;BME280;75017;41.576;24.704;2024-02-21T02:08:21;91388.38;;;-0.15;78.73
84785;BME280;75017;41.576;24.704;2024-02-21T02:10:48;91383.03;;;-0.14;78.88
84785;BME280;75017;41.576;24.704;2024-02-21T02:13:14;91380.97;;;-0.07;76.90
84785;BME280;75017;41.576;24.704;2024-02-21T02:15:45;91383.28;;;-0.15;77.68
84785;BME280;75017;41.576;24.704;2024-02-21T02:18:11;91373.59;;;-0.18;79.02
84785;BME280;75017;41.576;24.704;2024-02-21T02:20:37;91372.81;;;-0.19;78.55
84785;BME280;75017;41.576;24.704;2024-02-21T02:25:38;91359.03;;;-0.08;77.30
84785;BME280;75017;41.576;24.704;2024-02-21T02:28:05;91377.41;;;-0.01;77.00
84785;BME280;75017;41.576;24.704;2024-02-21T02:30:34;91367.44;;;0.03;78.60
84785;BME280;75017;41.576;24.704;2024-02-21T02:33:02;91367.69;;;0.07;76.49
84785;BME280;75017;41.576;24.704;2024-02-21T02:35:28;91364.63;;;0.10;77.52
84785;BME280;75017;41.576;24.704;2024-02-21T02:37:54;91363.88;;;0.04;78.30
84785;BME280;75017;41.576;24.704;2024-02-21T02:40:19;91365.16;;;-0.04;77.18
84785;BME280;75017;41.576;24.704;2024-02-21T02:42:45;91367.19;;;-0.01;76.64
84785;BME280;75017;41.576;24.704;2024-02-21T02:45:11;91363.38;;;0.02;77.13
84785;BME280;75017;41.576;24.704;2024-02-21T02:47:36;91364.13;;;0.03;77.98
84785;BME280;75017;41.576;24.704;2024-02-21T02:50:02;91359.56;;;-0.01;78.29
84785;BME280;75017;41.576;24.704;2024-02-21T02:52:28;91361.34;;;-0.06;77.11
84785;BME280;75017;41.576;24.704;2024-02-21T02:54:53;91358.31;;;-0.08;76.65
84785;BME280;75017;41.576;24.704;2024-02-21T02:57:21;91356.25;;;-0.06;76.56
84785;BME280;75017;41.576;24.704;2024-02-21T02:59:48;91365.44;;;-0.15;77.99
84785;BME280;75017;41.576;24.704;2024-02-21T03:02:14;91364.16;;;-0.13;78.74
84785;BME280;75017;41.576;24.704;2024-02-21T03:04:40;91365.69;;;-0.07;77.71
84785;BME280;75017;41.576;24.704;2024-02-21T03:07:06;91365.94;;;-0.03;77.13
84785;BME280;75017;41.576;24.704;2024-02-21T03:09:31;91365.94;;;-0.03;78.00
84785;BME280;75017;41.576;24.704;2024-02-21T03:11:57;91370.25;;;0.02;77.53
84785;BME280;75017;41.576;24.704;2024-02-21T03:14:28;91362.59;;;0.02;78.41
84785;BME280;75017;41.576;24.704;2024-02-21T03:16:54;91371.25;;;0.00;77.06
84785;BME280;75017;41.576;24.704;2024-02-21T03:19:19;91366.44;;;-0.01;77.87
84785;BME280;75017;41.576;24.704;2024-02-21T03:21:45;91369.97;;;0.03;77.66
84785;BME280;75017;41.576;24.704;2024-02-21T03:24:10;91370.25;;;-0.04;77.92
84785;BME280;75017;41.576;24.704;2024-02-21T03:26:36;91374.88;;;-0.06;78.60
84785;BME280;75017;41.576;24.704;2024-02-21T03:29:01;91374.06;;;0.04;77.95
84785;BME280;75017;41.576;24.704;2024-02-21T03:31:27;91374.06;;;-0.01;78.68
84785;BME280;75017;41.576;24.704;2024-02-21T03:33:53;91376.34;;;0.06;77.79
84785;BME280;75017;41.576;24.704;2024-02-21T03:36:18;91374.81;;;0.10;77.55
84785;BME280;75017;41.576;24.704;2024-02-21T03:38:44;91385.00;;;0.15;77.01
84785;BME280;75017;41.576;24.704;2024-02-21T03:41:10;91380.16;;;0.13;76.91
84785;BME280;75017;41.576;24.704;2024-02-21T03:43:37;91382.44;;;0.20;77.15
84785;BME280;75017;41.576;24.704;2024-02-21T03:46:04;91380.63;;;0.25;76.33
84785;BME280;75017;41.576;24.704;2024-02-21T03:48:29;91367.63;;;0.22;77.47
84785;BME280;75017;41.576;24.704;2024-02-21T03:50:55;91370.69;;;0.29;76.26
84785;BME280;75017;41.576;24.704;2024-02-21T03:53:20;91365.59;;;0.29;77.43
84785;BME280;75017;41.576;24.704;2024-02-21T03:55:46;91366.84;;;0.31;77.42
84785;BME280;75017;41.576;24.704;2024-02-21T03:58:11;91364.75;;;0.43;77.12
84785;BME280;75017;41.576;24.704;2024-02-21T04:00:36;91366.25;;;0.49;76.61
84785;BME280;75017;41.576;24.704;2024-02-21T04:03:02;91365.47;;;0.54;77.11
84785;BME280;75017;41.576;24.704;2024-02-21T04:05:28;91365.97;;;0.51;76.30
84785;BME280;75017;41.576;24.704;2024-02-21T04:07:53;91357.06;;;0.53;77.20
84785;BME280;75017;41.576;24.704;2024-02-21T04:10:19;91365.72;;;0.57;77.63
84785;BME280;75017;41.576;24.704;2024-02-21T04:12:45;91361.63;;;0.62;75.73
84785;BME280;75017;41.576;24.704;2024-02-21T04:15:10;91363.16;;;0.57;76.34
84785;BME280;75017;41.576;24.704;2024-02-21T04:17:36;91366.97;;;0.60;76.57
84785;BME280;75017;41.576;24.704;2024-02-21T04:20:06;91366.47;;;0.58;76.96
84785;BME280;75017;41.576;24.704;2024-02-21T04:22:33;91367.47;;;0.62;77.09
84785;BME280;75017;41.576;24.704;2024-02-21T04:25:02;91370.03;;;0.62;76.50
84785;BME280;75017;41.576;24.704;2024-02-21T04:27:27;91367.47;;;0.62;75.82
84785;BME280;75017;41.576;24.704;2024-02-21T04:29:53;91374.16;;;0.53;75.69
84785;BME280;75017;41.576;24.704;2024-02-21T04:32:19;91367.00;;;0.55;76.30
84785;BME280;75017;41.576;24.704;2024-02-21T04:34:44;91374.63;;;0.60;75.28
84785;BME280;75017;41.576;24.704;2024-02-21T04:37:10;91368.53;;;0.56;75.52
84785;BME280;75017;41.576;24.704;2024-02-21T04:39:35;91365.72;;;0.57;75.59
84785;BME280;75017;41.576;24.704;2024-02-21T04:42:01;91364.19;;;0.62;76.51
84785;BME280;75017;41.576;24.704;2024-02-21T04:44:26;91370.50;;;0.69;75.38
84785;BME280;75017;41.576;24.704;2024-02-21T04:46:52;91371.50;;;0.73;75.42
84785;BME280;75017;41.576;24.704;2024-02-21T04:49:17;91368.72;;;0.65;75.87
84785;BME280;75017;41.576;24.704;2024-02-21T04:51:43;91367.44;;;0.72;76.56
84785;BME280;75017;41.576;24.704;2024-02-21T04:54:09;91370.97;;;0.76;76.01
84785;BME280;75017;41.576;24.704;2024-02-21T04:56:34;91372.25;;;0.79;76.56
84785;BME280;75017;41.576;24.704;2024-02-21T04:59:00;91375.06;;;0.77;75.43
84785;BME280;75017;41.576;24.704;2024-02-21T05:01:25;91381.75;;;0.63;76.73
84785;BME280;75017;41.576;24.704;2024-02-21T05:03:51;91378.63;;;0.76;74.94
84785;BME280;75017;41.576;24.704;2024-02-21T05:06:16;91381.94;;;0.77;74.55
84785;BME280;75017;41.576;24.704;2024-02-21T05:08:42;91387.03;;;0.82;76.14
84785;BME280;75017;41.576;24.704;2024-02-21T05:11:07;91380.91;;;0.83;76.35
84785;BME280;75017;41.576;24.704;2024-02-21T05:13:33;91376.78;;;0.87;76.69
84785;BME280;75017;41.576;24.704;2024-02-21T05:15:58;91381.66;;;0.88;75.01
84785;BME280;75017;41.576;24.704;2024-02-21T05:18:27;91388.25;;;0.89;76.55
84785;BME280;75017;41.576;24.704;2024-02-21T05:20:53;91380.34;;;0.91;76.22
84785;BME280;75017;41.576;24.704;2024-02-21T05:23:18;91381.34;;;0.95;76.36
84785;BME280;75017;41.576;24.704;2024-02-21T05:25:44;91379.31;;;0.92;75.65
84785;BME280;75017;41.576;24.704;2024-02-21T05:28:09;91392.56;;;0.94;76.31
84785;BME280;75017;41.576;24.704;2024-02-21T05:30:35;91390.75;;;0.99;75.88
84785;BME280;75017;41.576;24.704;2024-02-21T05:33:05;91388.69;;;1.06;76.11
84785;BME280;75017;41.576;24.704;2024-02-21T05:35:30;91394.03;;;1.05;75.61
84785;BME280;75017;41.576;24.704;2024-02-21T05:37:56;91391.19;;;1.11;76.30
84785;BME280;75017;41.576;24.704;2024-02-21T05:40:22;91394.25;;;1.13;75.54
84785;BME280;75017;41.576;24.704;2024-02-21T05:42:47;91399.13;;;1.10;75.50
84785;BME280;75017;41.576;24.704;2024-02-21T05:45:13;91403.06;;;0.92;76.72
84785;BME280;75017;41.576;24.704;2024-02-21T05:47:41;91406.88;;;0.95;76.40
84785;BME280;75017;41.576;24.704;2024-02-21T05:50:06;91412.44;;;1.02;75.76
84785;BME280;75017;41.576;24.704;2024-02-21T05:52:32;91407.81;;;1.09;75.16
84785;BME280;75017;41.576;24.704;2024-02-21T05:54:57;91410.34;;;1.14;74.27
84785;BME280;75017;41.576;24.704;2024-02-21T05:57:23;91413.41;;;1.11;74.51
84785;BME280;75017;41.576;24.704;2024-02-21T05:59:48;91405.19;;;1.19;74.55
84785;BME280;75017;41.576;24.704;2024-02-21T06:02:14;91412.06;;;1.23;75.09
84785;BME280;75017;41.576;24.704;2024-02-21T06:04:39;91411.50;;;1.32;75.43
84785;BME280;75017;41.576;24.704;2024-02-21T06:07:05;91413.28;;;1.36;75.34
84785;BME280;75017;41.576;24.704;2024-02-21T06:09:30;91412.47;;;1.41;74.71
84785;BME280;75017;41.576;24.704;2024-02-21T06:11:57;91422.13;;;1.49;75.47
84785;BME280;75017;41.576;24.704;2024-02-21T06:14:22;91424.19;;;1.47;75.23
84785;BME280;75017;41.576;24.704;2024-02-21T06:16:48;91423.78;;;1.30;75.50
84785;BME280;75017;41.576;24.704;2024-02-21T06:19:13;91426.41;;;1.19;75.00
84785;BME280;75017;41.576;24.704;2024-02-21T06:21:39;91424.38;;;1.16;74.69
84785;BME280;75017;41.576;24.704;2024-02-21T06:24:04;91426.13;;;1.21;74.23
84785;BME280;75017;41.576;24.704;2024-02-21T06:26:30;91433.22;;;1.29;74.04
84785;BME280;75017;41.576;24.704;2024-02-21T06:28:55;91436.47;;;1.40;73.83
84785;BME280;75017;41.576;24.704;2024-02-21T06:31:21;91432.06;;;1.50;73.23
84785;BME280;75017;41.576;24.704;2024-02-21T06:33:46;91436.34;;;1.60;73.36
84785;BME280;75017;41.576;24.704;2024-02-21T06:36:12;91430.66;;;1.68;73.32
84785;BME280;75017;41.576;24.704;2024-02-21T06:38:38;91427.00;;;1.79;73.69
84785;BME280;75017;41.576;24.704;2024-02-21T06:41:03;91425.88;;;1.90;72.87
84785;BME280;75017;41.576;24.704;2024-02-21T06:43:29;91429.09;;;2.01;73.75
84785;BME280;75017;41.576;24.704;2024-02-21T06:45:55;91429.81;;;2.11;72.10
84785;BME280;75017;41.576;24.704;2024-02-21T06:48:22;91434.91;;;2.11;73.29
84785;BME280;75017;41.576;24.704;2024-02-21T06:50:47;91436.31;;;2.22;73.04
84785;BME280;75017;41.576;24.704;2024-02-21T06:53:13;91436.78;;;2.29;71.49
84785;BME280;75017;41.576;24.704;2024-02-21T06:55:38;91437.97;;;2.13;72.27
84785;BME280;75017;41.576;24.704;2024-02-21T06:58:04;91438.50;;;2.10;73.13
84785;BME280;75017;41.576;24.704;2024-02-21T07:00:30;91436.53;;;2.02;72.51
84785;BME280;75017;41.576;24.704;2024-02-21T07:02:55;91434.22;;;2.01;72.97
84785;BME280;75017;41.576;24.704;2024-02-21T07:05:21;91438.44;;;2.15;71.57
84785;BME280;75017;41.576;24.704;2024-02-21T07:07:47;91433.22;;;2.25;71.93
84785;BME280;75017;41.576;24.704;2024-02-21T07:10:13;91445.19;;;2.35;71.79
84785;BME280;75017;41.576;24.704;2024-02-21T07:12:38;91440.25;;;2.38;70.13
84785;BME280;75017;41.576;24.704;2024-02-21T07:15:07;91447.16;;;2.43;69.76
84785;BME280;75017;41.576;24.704;2024-02-21T07:17:33;91447.88;;;2.49;69.65
84785;BME280;75017;41.576;24.704;2024-02-21T07:19:58;91443.16;;;2.56;68.83
84785;BME280;75017;41.576;24.704;2024-02-21T07:22:25;91451.28;;;2.63;68.29
84785;BME280;75017;41.576;24.704;2024-02-21T07:24:50;91453.19;;;2.76;67.89
84785;BME280;75017;41.576;24.704;2024-02-21T07:27:16;91449.00;;;2.85;68.41
84785;BME280;75017;41.576;24.704;2024-02-21T07:29:41;91454.53;;;2.92;68.90
84785;BME280;75017;41.576;24.704;2024-02-21T07:32:07;91457.03;;;2.97;68.55
84785;BME280;75017;41.576;24.704;2024-02-21T07:34:33;91452.69;;;3.16;68.36
84785;BME280;75017;41.576;24.704;2024-02-21T07:36:58;91451.53;;;3.27;68.48
84785;BME280;75017;41.576;24.704;2024-02-21T07:39:24;91446.34;;;3.32;66.71
84785;BME280;75017;41.576;24.704;2024-02-21T07:41:49;91454.53;;;3.34;67.46
84785;BME280;75017;41.576;24.704;2024-02-21T07:44:15;91452.78;;;3.48;66.49
84785;BME280;75017;41.576;24.704;2024-02-21T07:46:41;91447.53;;;3.58;66.44
84785;BME280;75017;41.576;24.704;2024-02-21T07:49:06;91461.25;;;3.67;66.04
84785;BME280;75017;41.576;24.704;2024-02-21T07:51:32;91456.19;;;3.81;66.33
84785;BME280;75017;41.576;24.704;2024-02-21T07:53:57;91459.81;;;3.94;65.07
84785;BME280;75017;41.576;24.704;2024-02-21T07:56:23;91449.44;;;4.04;65.38
84785;BME280;75017;41.576;24.704;2024-02-21T07:58:48;91447.34;;;4.06;64.69
84785;BME280;75017;41.576;24.704;2024-02-21T08:01:19;91451.66;;;3.92;65.05
84785;BME280;75017;41.576;24.704;2024-02-21T08:03:48;91453.63;;;3.81;64.76
84785;BME280;75017;41.576;24.704;2024-02-21T08:06:13;91458.72;;;4.00;64.54
84785;BME280;75017;41.576;24.704;2024-02-21T08:08:39;91457.72;;;4.28;64.49
84785;BME280;75017;41.576;24.704;2024-02-21T08:11:05;91446.94;;;4.58;64.24
84785;BME280;75017;41.576;24.704;2024-02-21T08:13:31;91449.06;;;4.70;61.36
84785;BME280;75017;41.576;24.704;2024-02-21T08:15:56;91456.56;;;4.94;60.14
84785;BME280;75017;41.576;24.704;2024-02-21T08:18:22;91448.75;;;5.12;59.80
84785;BME280;75017;41.576;24.704;2024-02-21T08:20:48;91448.28;;;5.60;58.69
84785;BME280;75017;41.576;24.704;2024-02-21T08:23:17;91443.16;;;6.18;58.65
84785;BME280;75017;41.576;24.704;2024-02-21T08:25:43;91440.13;;;6.77;55.93
84785;BME280;75017;41.576;24.704;2024-02-21T08:28:09;91436.66;;;7.38;53.93
84785;BME280;75017;41.576;24.704;2024-02-21T08:30:34;91434.25;;;8.27;50.61
84785;BME280;75017;41.576;24.704;2024-02-21T08:32:59;91433.44;;;8.99;49.13
84785;BME280;75017;41.576;24.704;2024-02-21T08:35:25;91429.44;;;9.10;46.76
84785;BME280;75017;41.576;24.704;2024-02-21T08:37:51;91430.84;;;8.99;47.47
84785;BME280;75017;41.576;24.704;2024-02-21T08:40:16;91443.72;;;8.78;48.45
84785;BME280;75017;41.576;24.704;2024-02-21T08:42:46;91444.25;;;8.55;48.92
84785;BME280;75017;41.576;24.704;2024-02-21T08:45:12;91441.53;;;8.25;49.71
84785;BME280;75017;41.576;24.704;2024-02-21T08:47:40;91441.09;;;8.06;50.97
84785;BME280;75017;41.576;24.704;2024-02-21T08:50:07;91448.22;;;8.01;50.41
84785;BME280;75017;41.576;24.704;2024-02-21T08:52:32;91445.03;;;7.86;51.27
84785;BME280;75017;41.576;24.704;2024-02-21T08:54:58;91445.97;;;7.82;50.05
84785;BME280;75017;41.576;24.704;2024-02-21T08:57:23;91443.84;;;7.93;50.30
84785;BME280;75017;41.576;24.704;2024-02-21T08:59:49;91443.22;;;7.87;51.15
84785;BME280;75017;41.576;24.704;2024-02-21T09:02:14;91450.63;;;7.46;52.13
84785;BME280;75017;41.576;24.704;2024-02-21T09:04:43;91452.56;;;7.32;53.04
84785;BME280;75017;41.576;24.704;2024-02-21T09:07:11;91461.84;;;7.50;52.20
84785;BME280;75017;41.576;24.704;2024-02-21T09:09:37;91452.13;;;7.47;51.30
84785;BME280;75017;41.576;24.704;2024-02-21T09:12:08;91455.47;;;7.39;51.45
84785;BME280;75017;41.576;24.704;2024-02-21T09:14:37;91454.06;;;7.24;53.86
84785;BME280;75017;41.576;24.704;2024-02-21T09:17:04;91454.13;;;7.50;52.65
84785;BME280;75017;41.576;24.704;2024-02-21T09:19:29;91453.38;;;7.58;50.45
84785;BME280;75017;41.576;24.704;2024-02-21T09:21:55;91449.75;;;7.59;50.71
84785;BME280;75017;41.576;24.704;2024-02-21T09:24:20;91452.19;;;7.64;51.65
84785;BME280;75017;41.576;24.704;2024-02-21T09:26:46;91448.06;;;7.71;51.48
84785;BME280;75017;41.576;24.704;2024-02-21T09:29:12;91453.69;;;7.65;50.90
84785;BME280;75017;41.576;24.704;2024-02-21T09:31:38;91455.66;;;7.68;49.54
84785;BME280;75017;41.576;24.704;2024-02-21T09:34:04;91457.66;;;8.05;48.94
84785;BME280;75017;41.576;24.704;2024-02-21T09:36:30;91448.06;;;8.40;48.12
84785;BME280;75017;41.576;24.704;2024-02-21T09:38:55;91451.19;;;8.71;47.85
84785;BME280;75017;41.576;24.704;2024-02-21T09:41:27;91458.84;;;8.97;47.42
84785;BME280;75017;41.576;24.704;2024-02-21T09:43:53;91452.69;;;9.19;45.58
84785;BME280;75017;41.576;24.704;2024-02-21T09:46:20;91448.19;;;9.65;46.08
84785;BME280;75017;41.576;24.704;2024-02-21T09:51:15;91455.06;;;10.03;43.56
84785;BME280;75017;41.576;24.704;2024-02-21T09:53:42;91452.75;;;9.89;43.76
84785;BME280;75017;41.576;24.704;2024-02-21T09:56:08;91452.22;;;10.37;42.26
84785;BME280;75017;41.576;24.704;2024-02-21T09:58:34;91439.38;;;10.85;41.14
84785;BME280;75017;41.576;24.704;2024-02-21T10:01:00;91445.25;;;11.07;38.73
84785;BME280;75017;41.576;24.704;2024-02-21T10:03:26;91436.38;;;11.20;39.02
84785;BME280;75017;41.576;24.704;2024-02-21T10:05:51;91436.50;;;11.35;40.01
84785;BME280;75017;41.576;24.704;2024-02-21T10:08:18;91437.22;;;11.48;38.87
84785;BME280;75017;41.576;24.704;2024-02-21T10:10:45;91429.13;;;11.37;38.10
84785;BME280;75017;41.576;24.704;2024-02-21T10:13:23;91427.00;;;11.15;39.21
84785;BME280;75017;41.576;24.704;2024-02-21T10:16:06;91432.50;;;11.02;38.31
84785;BME280;75017;41.576;24.704;2024-02-21T10:18:33;91431.13;;;10.71;37.90
84785;BME280;75017;41.576;24.704;2024-02-21T10:21:03;91424.44;;;10.70;37.65
84785;BME280;75017;41.576;24.704;2024-02-21T10:23:29;91423.13;;;10.64;39.32
84785;BME280;75017;41.576;24.704;2024-02-21T10:26:05;91428.06;;;10.45;38.48
84785;BME280;75017;41.576;24.704;2024-02-21T10:28:31;91419.31;;;10.17;39.74
84785;BME280;75017;41.576;24.704;2024-02-21T10:30:56;91421.06;;;10.25;39.17
84785;BME280;75017;41.576;24.704;2024-02-21T10:33:22;91406.84;;;10.10;40.26
84785;BME280;75017;41.576;24.704;2024-02-21T10:35:49;91402.81;;;10.21;39.15
84785;BME280;75017;41.576;24.704;2024-02-21T10:38:15;91406.28;;;10.25;38.76
84785;BME280;75017;41.576;24.704;2024-02-21T10:40:40;91397.09;;;10.28;39.84
84785;BME280;75017;41.576;24.704;2024-02-21T10:43:10;91392.41;;;9.89;38.99
84785;BME280;75017;41.576;24.704;2024-02-21T10:45:37;91392.41;;;9.47;40.96
84785;BME280;75017;41.576;24.704;2024-02-21T10:48:13;91387.09;;;9.44;40.79
84785;BME280;75017;41.576;24.704;2024-02-21T10:51:18;91387.47;;;9.34;40.76
84785;BME280;75017;41.576;24.704;2024-02-21T10:54:13;91379.41;;;9.56;40.46
84785;BME280;75017;41.576;24.704;2024-02-21T10:56:44;91379.72;;;9.54;41.66
84785;BME280;75017;41.576;24.704;2024-02-21T10:59:13;91378.91;;;9.62;41.34
84785;BME280;75017;41.576;24.704;2024-02-21T11:01:39;91369.22;;;9.71;40.89
84785;BME280;75017;41.576;24.704;2024-02-21T11:04:06;91367.47;;;9.63;40.64
84785;BME280;75017;41.576;24.704;2024-02-21T11:06:34;91362.25;;;9.51;42.00
84785;BME280;75017;41.576;24.704;2024-02-21T11:09:04;91357.06;;;9.51;42.26
84785;BME280;75017;41.576;24.704;2024-02-21T11:11:41;91352.56;;;9.40;41.14
84785;BME280;75017;41.576;24.704;2024-02-21T11:14:11;91358.06;;;9.38;40.96
84785;BME280;75017;41.576;24.704;2024-02-21T11:16:42;91357.56;;;8.66;41.56
84785;BME280;75017;41.576;24.704;2024-02-21T11:19:26;91366.03;;;8.28;43.44
84785;BME280;75017;41.576;24.704;2024-02-21T11:21:53;91355.34;;;8.47;42.87
84785;BME280;75017;41.576;24.704;2024-02-21T11:24:30;91357.59;;;8.48;42.64
84785;BME280;75017;41.576;24.704;2024-02-21T11:27:14;91353.59;;;8.68;42.19
84785;BME280;75017;41.576;24.704;2024-02-21T11:29:43;91352.91;;;8.51;41.94
84785;BME280;75017;41.576;24.704;2024-02-21T11:32:14;91351.03;;;8.60;40.57
84785;BME280;75017;41.576;24.704;2024-02-21T11:34:40;91344.03;;;8.60;40.41
84785;BME280;75017;41.576;24.704;2024-02-21T11:37:15;91345.97;;;8.72;40.25
84785;BME280;75017;41.576;24.704;2024-02-21T11:39:43;91353.59;;;8.68;39.11
84785;BME280;75017;41.576;24.704;2024-02-21T11:42:10;91353.25;;;8.70;40.38
84785;BME280;75017;41.576;24.704;2024-02-21T11:44:36;91344.72;;;8.78;39.24
84785;BME280;75017;41.576;24.704;2024-02-21T11:47:07;91345.84;;;8.68;40.59
84785;BME280;75017;41.576;24.704;2024-02-21T11:49:46;91345.44;;;8.58;39.67
84785;BME280;75017;41.576;24.704;2024-02-21T11:52:14;91343.19;;;8.47;41.80
84785;BME280;75017;41.576;24.704;2024-02-21T11:54:44;91334.44;;;8.23;42.68
84785;BME280;75017;41.576;24.704;2024-02-21T11:57:10;91344.75;;;8.23;41.87
84785;BME280;75017;41.576;24.704;2024-02-21T11:59:36;91348.91;;;7.98;43.36
84785;BME280;75017;41.576;24.704;2024-02-21T12:02:03;91338.31;;;7.91;44.13
84785;BME280;75017;41.576;24.704;2024-02-21T12:04:29;91341.59;;;8.00;44.12
84785;BME280;75017;41.576;24.704;2024-02-21T12:06:57;91337.09;;;7.88;44.03
84785;BME280;75017;41.576;24.704;2024-02-21T12:09:24;91337.53;;;7.82;43.07
84785;BME280;75017;41.576;24.704;2024-02-21T12:12:00;91336.81;;;7.56;45.34
84785;BME280;75017;41.576;24.704;2024-02-21T12:14:27;91340.00;;;7.53;46.83
84785;BME280;75017;41.576;24.704;2024-02-21T12:16:53;91335.13;;;7.60;47.16
84785;BME280;75017;41.576;24.704;2024-02-21T12:19:19;91341.97;;;7.73;46.73
84785;BME280;75017;41.576;24.704;2024-02-21T12:21:45;91325.28;;;7.70;46.97
84785;BME280;75017;41.576;24.704;2024-02-21T12:24:23;91329.84;;;7.65;46.67
84785;BME280;75017;41.576;24.704;2024-02-21T12:26:50;91328.59;;;7.71;47.41
84785;BME280;75017;41.576;24.704;2024-02-21T12:29:17;91327.53;;;7.72;46.48
84785;BME280;75017;41.576;24.704;2024-02-21T12:31:43;91325.28;;;7.62;48.46
84785;BME280;75017;41.576;24.704;2024-02-21T12:34:09;91326.66;;;7.59;47.25
84785;BME280;75017;41.576;24.704;2024-02-21T12:36:40;91329.84;;;7.48;49.04
84785;BME280;75017;41.576;24.704;2024-02-21T12:39:06;91321.34;;;7.39;48.68
84785;BME280;75017;41.576;24.704;2024-02-21T12:41:31;91325.44;;;7.31;50.19
84785;BME280;75017;41.576;24.704;2024-02-21T12:43:58;91323.19;;;7.38;48.95
84785;BME280;75017;41.576;24.704;2024-02-21T12:46:24;91318.91;;;7.42;49.92
84785;BME280;75017;41.576;24.704;2024-02-21T12:48:50;91320.13;;;7.45;50.38
84785;BME280;75017;41.576;24.704;2024-02-21T12:51:15;91314.53;;;7.51;49.17
84785;BME280;75017;41.576;24.704;2024-02-21T12:53:47;91316.19;;;7.56;49.30
84785;BME280;75017;41.576;24.704;2024-02-21T12:56:12;91315.56;;;7.42;49.46
84785;BME280;75017;41.576;24.704;2024-02-21T12:58:38;91316.94;;;7.48;50.41
84785;BME280;75017;41.576;24.704;2024-02-21T13:01:03;91311.47;;;7.49;49.84